Time;durP1;ratioP1;P1;durP2;ratioP2;P2;SDS_P1;SDS_P2;PMS_P1;PMS_P2;Temp;Humidity;BMP_temperature;BMP_pressure;BME280_temperature;BME280_humidity;BME280_pressure;Samples;Min_cycle;Max_cycle;Signal;HPM_P1;HPM_P2
2023/01/01 00:00:05;;;;;;;12.30;9.00;;;;;;;11.86;80.19;100366.77;3302455;83;20971;-78
2023/01/01 00:04:58;;;;;;;8.50;6.72;;;;;;;11.88;79.94;100382.01;3337415;83;20993;-78
2023/01/01 00:14:59;;;;;;;8.73;6.95;;;;;;;11.88;79.90;100379.41;3355494;83;21087;-79
2023/01/01 00:19:50;;;;;;;8.95;6.37;;;;;;;11.88;79.81;100381.57;3312078;83;22243;-79
2023/01/01 00:24:43;;;;;;;8.73;6.45;;;;;;;11.85;79.78;100365.05;3359016;83;21612;-79
2023/01/01 00:29:51;;;;;;;7.58;5.70;;;;;;;11.88;79.79;100366.37;3315173;84;21021;-79
2023/01/01 00:34:51;;;;;;;;;;;;;;;;;;;;;
2023/01/01 00:39:41;;;;;;;9.05;7.42;;;;;;;11.89;79.73;100365.50;3287393;84;21021;-78
2023/01/01 00:44:51;;;;;;;7.95;5.10;;;;;;;11.94;79.70;100372.95;3316792;84;21038;-79
2023/01/01 00:49:57;;;;;;;10.68;6.72;;;;;;;11.96;79.36;100371.22;3353199;83;21045;-79
2023/01/01 00:55:09;;;;;;;7.70;5.92;;;;;;;11.99;79.43;100376.45;3303411;83;21626;-79
2023/01/01 01:00:26;;;;;;;7.50;6.28;;;;;;;11.92;79.24;100375.54;3288421;84;20982;-80
2023/01/01 01:05:36;;;;;;;8.08;4.95;;;;;;;11.86;79.34;100379.39;3293079;84;21581;-80
2023/01/01 01:10:45;;;;;;;7.85;5.47;;;;;;;11.86;79.35;100375.89;3286536;84;22245;-81
2023/01/01 01:15:44;;;;;;;7.55;5.45;;;;;;;11.84;79.35;100379.81;3300722;84;21488;-78
2023/01/01 01:20:46;;;;;;;8.48;5.03;;;;;;;11.87;79.30;100369.83;3311313;84;20887;-79
2023/01/01 01:26:09;;;;;;;6.87;5.72;;;;;;;11.86;79.15;100377.19;3318316;84;20997;-80
2023/01/01 01:31:05;;;;;;;7.97;5.60;;;;;;;11.83;79.12;100372.84;3318565;83;20994;-79
2023/01/01 01:36:16;;;;;;;8.20;5.85;;;;;;;11.87;79.09;100376.34;3269548;84;20947;-81
2023/01/01 01:41:19;;;;;;;8.83;6.20;;;;;;;11.88;78.87;100376.80;3292707;85;21000;-79
2023/01/01 01:46:44;;;;;;;8.10;5.92;;;;;;;11.89;78.93;100370.70;3277660;85;21015;-78
2023/01/01 01:51:55;;;;;;;8.45;5.92;;;;;;;11.90;78.50;100378.57;3296711;83;21248;-79
2023/01/01 01:57:08;;;;;;;7.15;5.85;;;;;;;11.90;78.66;100385.08;3280380;85;21302;-78
2023/01/01 02:02:31;;;;;;;8.50;5.20;;;;;;;11.87;78.46;100379.81;3254418;85;20932;-78
2023/01/01 02:07:25;;;;;;;7.55;5.45;;;;;;;11.85;78.51;100372.86;3125812;88;20983;-79
2023/01/01 02:12:16;;;;;;;;;;;;;;;11.83;78.45;100380.22;3132361;89;21358;-79
2023/01/01 02:17:51;;;;;;;7.08;6.22;;;;;;;11.76;78.45;100374.53;3164630;87;20350;-79
2023/01/01 02:23:15;;;;;;;8.75;5.85;;;;;;;11.67;78.51;100365.36;3006786;92;21165;-79
2023/01/01 02:28:25;;;;;;;7.45;5.28;;;;;;;11.61;78.52;100361.42;3097669;90;20960;-78
2023/01/01 02:33:31;;;;;;;;;;;;;;;;;;;;;
2023/01/01 02:38:43;;;;;;;8.13;6.20;;;;;;;11.57;78.60;100368.34;3091965;90;21030;-79
2023/01/01 02:43:45;;;;;;;7.65;5.85;;;;;;;11.58;78.57;100374.42;3088390;89;21062;-79
2023/01/01 02:48:49;;;;;;;6.92;6.10;;;;;;;11.54;78.56;100380.03;3199992;87;21065;-79
2023/01/01 02:53:53;;;;;;;6.92;5.20;;;;;;;11.57;78.50;100373.96;3226633;86;20940;-79
2023/01/01 03:05:04;;;;;;;6.67;5.40;;;;;;;11.67;78.30;100364.50;3285335;84;21540;-79
2023/01/01 03:10:04;;;;;;;7.05;5.20;;;;;;;11.72;78.18;100364.97;3147118;89;21103;-80
2023/01/01 03:15:02;;;;;;;6.22;4.65;;;;;;;11.81;77.99;100368.92;3152961;89;21067;-79
2023/01/01 03:19:57;;;;;;;6.47;5.25;;;;;;;11.82;77.81;100360.67;3131834;89;21056;-78
2023/01/01 03:24:53;;;;;;;6.47;5.87;;;;;;;11.90;77.65;100372.47;3136230;89;21092;-79
2023/01/01 03:29:49;;;;;;;7.80;5.45;;;;;;;11.91;77.49;100369.02;3153986;89;21848;-79
2023/01/01 03:34:47;;;;;;;8.53;5.08;;;;;;;11.92;77.24;100362.95;3145880;89;21651;-79
2023/01/01 03:39:46;;;;;;;6.80;4.95;;;;;;;11.93;77.20;100356.45;3136419;90;27063;-79
2023/01/01 03:44:45;;;;;;;5.72;4.90;;;;;;;12.00;76.95;100352.13;3187899;84;20982;-79
2023/01/01 03:49:37;;;;;;;6.42;5.03;;;;;;;12.01;76.86;100365.61;3312031;84;21022;-79
2023/01/01 03:54:56;;;;;;;8.88;5.37;;;;;;;12.02;76.72;100381.69;3298504;84;21256;-79
2023/01/01 04:00:05;;;;;;;6.30;5.15;;;;;;;12.08;76.66;100392.14;3292378;84;20998;-79
2023/01/01 04:05:03;;;;;;;6.15;4.72;;;;;;;12.16;76.25;100381.74;3286188;84;21045;-80
2023/01/01 04:09:58;;;;;;;6.15;4.37;;;;;;;12.25;76.17;100378.31;3268847;84;20946;-79
2023/01/01 04:14:49;;;;;;;8.23;5.37;;;;;;;12.31;75.93;100375.75;3312341;84;20966;-79
2023/01/01 04:19:40;;;;;;;7.08;4.53;;;;;;;12.42;75.78;100381.88;3286111;84;21705;-80
2023/01/01 04:24:33;;;;;;;4.25;3.65;;;;;;;12.46;75.29;100391.44;3281106;84;20942;-78
2023/01/01 04:29:24;;;;;;;5.15;4.33;;;;;;;12.54;75.15;100393.66;3268162;83;21045;-79
2023/01/01 04:34:17;;;;;;;5.42;4.03;;;;;;;12.67;74.87;100396.31;3254999;85;21015;-80
2023/01/01 04:39:08;;;;;;;5.28;4.78;;;;;;;12.71;74.41;100399.36;3246620;84;20958;-78
2023/01/01 04:44:00;;;;;;;5.03;3.35;;;;;;;12.76;74.36;100403.72;3300500;85;21729;-79
2023/01/01 04:48:51;;;;;;;5.50;3.83;;;;;;;12.85;74.11;100406.80;3282485;85;22123;-78
2023/01/01 04:53:43;;;;;;;4.37;3.33;;;;;;;12.90;73.80;100415.51;3294528;85;21525;-78
2023/01/01 04:58:36;;;;;;;4.92;3.80;;;;;;;12.95;73.36;100415.09;3250595;85;20997;-78
2023/01/01 05:03:28;;;;;;;3.87;3.45;;;;;;;13.03;73.26;100416.84;3279620;85;21482;-78
2023/01/01 05:08:19;;;;;;;4.30;3.25;;;;;;;13.01;73.05;100409.45;3253564;85;21972;-79
2023/01/01 05:13:10;;;;;;;4.25;3.62;;;;;;;12.96;73.02;100420.73;3262004;85;21480;-79
2023/01/01 05:18:02;;;;;;;4.22;3.33;;;;;;;13.00;73.00;100422.05;3277017;85;21017;-79
2023/01/01 05:22:53;;;;;;;3.47;3.15;;;;;;;12.97;72.55;100421.18;3263200;85;21085;-79
2023/01/01 05:27:44;;;;;;;6.40;3.47;;;;;;;13.10;72.40;100408.16;3281992;85;20979;-79
2023/01/01 05:32:36;;;;;;;4.90;3.20;;;;;;;13.19;72.20;100413.39;3265368;83;21706;-78
2023/01/01 05:37:28;;;;;;;3.47;3.00;;;;;;;13.17;71.60;100416.44;3336036;83;21022;-78
2023/01/01 05:42:19;;;;;;;4.70;3.10;;;;;;;13.20;71.80;100419.06;3311104;83;21699;-79
2023/01/01 05:47:11;;;;;;;3.52;2.80;;;;;;;13.21;71.64;100411.64;3300113;83;21010;-78
2023/01/01 05:52:02;;;;;;;4.12;3.05;;;;;;;13.23;70.94;100420.34;3336144;83;21457;-79
2023/01/01 05:56:53;;;;;;;5.12;4.20;;;;;;;13.25;71.25;100431.69;3316179;83;21125;-79
2023/01/01 06:01:44;;;;;;;6.03;3.67;;;;;;;13.21;71.29;100437.75;3313338;83;20979;-78
2023/01/01 06:06:35;;;;;;;4.90;3.00;;;;;;;13.13;71.22;100446.02;3308958;84;21014;-78
2023/01/01 06:11:28;;;;;;;6.00;3.42;;;;;;;13.11;70.55;100456.86;3303501;83;21489;-78
2023/01/01 06:16:20;;;;;;;4.40;3.40;;;;;;;13.12;71.11;100462.53;3313369;83;21466;-79
2023/01/01 06:21:15;;;;;;;4.17;3.30;;;;;;;13.08;71.00;100464.27;3332797;83;21457;-78
2023/01/01 06:26:16;;;;;;;3.77;3.20;;;;;;;13.03;70.86;100481.65;3316361;83;21074;-78
2023/01/01 06:31:11;;;;;;;4.30;3.55;;;;;;;12.93;70.91;100480.77;3315328;83;20975;-78
2023/01/01 06:36:06;;;;;;;4.58;4.12;;;;;;;12.85;70.96;100482.45;3301239;83;21553;-78
2023/01/01 06:41:01;;;;;;;5.37;3.33;;;;;;;12.76;70.95;100483.28;3333838;83;21105;-79
2023/01/01 06:46:25;;;;;;;4.78;3.60;;;;;;;12.72;70.93;100492.42;3299417;83;22825;-78
2023/01/01 06:51:19;;;;;;;4.87;3.80;;;;;;;12.66;71.05;100501.09;3307048;83;21002;-78
2023/01/01 06:56:12;;;;;;;5.70;2.70;;;;;;;12.54;70.92;100496.67;3271296;83;21010;-79
2023/01/01 07:01:08;;;;;;;6.62;4.22;;;;;;;12.39;70.92;100497.87;3358121;83;21026;-79
2023/01/01 07:05:59;;;;;;;5.35;3.52;;;;;;;12.33;71.09;100501.31;3330055;83;20959;-79
2023/01/01 07:10:50;;;;;;;6.30;3.58;;;;;;;12.32;71.09;100496.98;3301413;83;22161;-79
2023/01/01 07:15:43;;;;;;;5.10;4.08;;;;;;;12.30;71.16;100504.34;3358028;83;20978;-79
2023/01/01 07:20:34;;;;;;;3.52;3.22;;;;;;;12.30;71.16;100514.77;3331763;83;20896;-78
2023/01/01 07:25:25;;;;;;;4.22;3.08;;;;;;;12.22;71.11;100503.44;3293563;83;20951;-78
2023/01/01 07:30:16;;;;;;;5.53;3.55;;;;;;;12.22;71.12;100503.44;3331974;83;21741;-78
2023/01/01 07:35:07;;;;;;;2.92;2.62;;;;;;;12.30;70.98;100513.02;3323760;83;21394;-79
2023/01/01 07:39:58;;;;;;;3.90;3.20;;;;;;;12.44;70.81;100519.63;3323803;83;20975;-79
2023/01/01 07:44:49;;;;;;;6.12;3.47;;;;;;;12.62;70.54;100524.52;3299388;83;22520;-78
2023/01/01 07:49:40;;;;;;;5.35;3.12;;;;;;;12.76;70.29;100537.20;3359106;83;20952;-78
2023/01/01 07:54:31;;;;;;;6.17;3.27;;;;;;;12.92;69.98;100541.63;3299485;83;21572;-78
2023/01/01 07:59:22;;;;;;;6.25;3.33;;;;;;;13.07;69.61;100551.70;3317094;83;21098;-78
2023/01/01 08:04:13;;;;;;;4.28;3.27;;;;;;;13.19;68.96;100556.97;3359258;83;21010;-78
2023/01/01 08:09:04;;;;;;;4.28;3.02;;;;;;;13.30;69.02;100563.09;3295908;83;20979;-78
2023/01/01 08:13:55;;;;;;;6.58;3.37;;;;;;;13.42;68.89;100564.05;3335411;83;20944;-78
2023/01/01 08:18:46;;;;;;;5.22;3.08;;;;;;;13.47;68.59;100568.86;3352195;83;20947;-78
2023/01/01 08:23:37;;;;;;;6.35;3.35;;;;;;;13.52;68.11;100583.66;3329970;83;20963;-78
2023/01/01 08:28:30;;;;;;;7.15;3.45;;;;;;;13.62;67.74;100575.84;3350159;83;20935;-78
2023/01/01 08:33:22;;;;;;;6.95;3.08;;;;;;;13.74;67.85;100586.33;3293801;85;20935;-78
2023/01/01 08:38:13;;;;;;;4.55;3.02;;;;;;;13.82;67.04;100585.88;3259390;85;21085;-78
2023/01/01 08:43:05;;;;;;;5.83;2.77;;;;;;;14.00;67.10;100586.78;3276352;85;20958;-78
2023/01/01 08:47:56;;;;;;;4.28;3.17;;;;;;;14.08;66.99;100593.77;3277582;85;21180;-78
2023/01/01 08:52:47;;;;;;;7.50;4.10;;;;;;;14.11;66.79;100603.34;3224859;85;21690;-78
2023/01/01 08:57:38;;;;;;;4.80;2.85;;;;;;;14.21;66.05;100589.41;3297084;85;22085;-78
2023/01/01 09:02:29;;;;;;;7.22;3.37;;;;;;;14.29;65.46;100608.59;3247617;85;20986;-78
2023/01/01 09:07:20;;;;;;;3.75;2.98;;;;;;;14.41;66.21;100617.30;3253514;85;20978;-78
2023/01/01 09:12:15;;;;;;;5.20;3.02;;;;;;;14.47;65.63;100616.02;3224667;85;21397;-78
2023/01/01 09:17:06;;;;;;;7.67;3.52;;;;;;;14.62;65.36;100611.22;3272975;84;20987;-79
2023/01/01 09:21:57;;;;;;;8.33;3.10;;;;;;;14.76;65.60;100612.06;3257709;85;21476;-77
2023/01/01 09:26:49;;;;;;;7.25;3.72;;;;;;;14.90;64.66;100616.39;3267411;85;21004;-78
2023/01/01 09:31:40;;;;;;;7.08;3.05;;;;;;;15.15;64.65;100612.84;3292366;85;21006;-78
2023/01/01 09:36:32;;;;;;;9.65;3.35;;;;;;;15.41;63.95;100619.72;3300943;83;20995;-78
2023/01/01 09:41:47;;;;;;;4.95;3.37;;;;;;;15.63;63.70;100618.74;3296904;84;21557;-78
2023/01/01 09:46:38;;;;;;;6.60;3.08;;;;;;;15.80;62.90;100620.42;3358710;83;20947;-78
2023/01/01 09:51:34;;;;;;;6.62;3.17;;;;;;;16.04;62.71;100618.52;3262961;83;20959;-78
2023/01/01 09:56:28;;;;;;;6.78;3.37;;;;;;;16.20;62.64;100607.91;3335115;83;21453;-78
2023/01/01 10:01:56;;;;;;;12.68;3.77;;;;;;;16.43;61.92;100605.97;3345436;83;21438;-78
2023/01/01 10:06:53;;;;;;;5.15;2.80;;;;;;;16.70;60.65;100610.94;3333962;83;21494;-77
2023/01/01 10:12:11;;;;;;;7.95;3.45;;;;;;;16.92;60.53;100604.22;3315234;83;21034;-79
2023/01/01 10:17:16;;;;;;;5.55;3.62;;;;;;;17.01;60.61;100614.61;3338801;83;21495;-79
2023/01/01 10:22:21;;;;;;;5.20;3.17;;;;;;;17.18;60.34;100603.89;3325279;83;20975;-79
2023/01/01 10:27:36;;;;;;;8.20;3.33;;;;;;;17.37;59.01;100601.92;3328491;83;21037;-79
2023/01/01 10:32:35;;;;;;;4.37;2.80;;;;;;;17.43;59.50;100599.66;3349292;83;20951;-79
2023/01/01 10:37:34;;;;;;;5.70;3.50;;;;;;;17.70;59.09;100591.83;3288715;83;21023;-79
2023/01/01 10:42:26;;;;;;;11.83;5.55;;;;;;;17.83;57.92;100589.87;3331051;83;20998;-80
2023/01/01 10:47:28;;;;;;;7.67;3.42;;;;;;;17.59;58.36;100589.80;3311476;83;21019;-80
2023/01/01 10:52:30;;;;;;;7.15;3.40;;;;;;;17.47;57.40;100585.15;3298451;83;21280;-79
2023/01/01 10:57:31;;;;;;;10.65;3.00;;;;;;;17.56;57.23;100580.64;3344191;83;20982;-79
2023/01/01 11:02:26;;;;;;;8.38;3.20;;;;;;;17.49;57.76;100572.84;3311409;83;21098;-79
2023/01/01 11:07:30;;;;;;;7.78;3.30;;;;;;;17.47;57.45;100573.32;3350504;83;20956;-79
2023/01/01 11:12:26;;;;;;;7.67;3.58;;;;;;;18.12;56.56;100561.85;3346303;83;20939;-79
2023/01/01 11:17:30;;;;;;;3.67;2.40;;;;;;;18.88;56.05;100550.83;3352051;83;21822;-78
2023/01/01 11:22:45;;;;;;;5.75;2.55;;;;;;;18.96;55.06;100555.97;3321996;83;20944;-78
2023/01/01 11:27:40;;;;;;;6.45;4.00;;;;;;;19.00;54.58;100553.22;3279730;83;21033;-79
2023/01/01 11:32:35;;;;;;;7.97;3.80;;;;;;;19.62;53.62;100563.77;3313543;83;21025;-80
2023/01/01 11:37:41;;;;;;;;;;;;;;;20.08;53.11;100559.19;3277671;85;21021;-80
2023/01/01 11:42:41;;;;;;;6.83;3.35;;;;;;;20.26;51.45;100547.30;3288868;85;20793;-79
2023/01/01 11:47:40;;;;;;;6.08;2.72;;;;;;;20.31;51.19;100544.94;3290995;85;20976;-78
2023/01/01 11:52:39;;;;;;;7.00;2.62;;;;;;;20.38;51.23;100549.16;3226422;85;20959;-78
2023/01/01 11:57:31;;;;;;;10.43;3.30;;;;;;;20.11;51.11;100549.42;3265247;85;21504;-78
2023/01/01 12:02:33;;;;;;;6.92;3.35;;;;;;;19.83;51.72;100544.41;3299922;85;21011;-78
2023/01/01 12:07:32;;;;;;;7.08;2.92;;;;;;;19.60;51.81;100552.36;3282334;84;21196;-79
2023/01/01 12:12:49;;;;;;;6.97;2.95;;;;;;;19.24;51.84;100550.97;3256289;85;20987;-79
2023/01/01 12:17:55;;;;;;;5.37;2.85;;;;;;;18.80;52.19;100552.73;3265864;85;20919;-79
2023/01/01 12:22:47;;;;;;;7.78;3.30;;;;;;;18.33;52.44;100543.94;3278148;85;20963;-78
2023/01/01 12:28:17;;;;;;;7.30;3.55;;;;;;;18.03;53.09;100564.19;3248627;85;20967;-78
2023/01/01 12:33:30;;;;;;;8.98;3.50;;;;;;;17.79;53.44;100559.27;3304587;83;21197;-78
2023/01/01 12:39:05;;;;;;;;;;;;;;;;;;;;;
2023/01/01 12:44:49;;;;;;;5.93;3.17;;;;;;;17.60;53.74;100578.38;3338109;83;21065;-78
2023/01/01 12:50:06;;;;;;;9.13;4.28;;;;;;;17.52;53.25;100573.24;3297112;85;22317;-80
2023/01/01 12:55:31;;;;;;;5.95;3.30;;;;;;;17.37;53.84;100582.21;3296280;84;20989;-78
2023/01/01 13:00:28;;;;;;;7.72;2.98;;;;;;;17.28;53.91;100596.33;3241165;86;21549;-77
2023/01/01 13:05:39;;;;;;;8.13;3.95;;;;;;;17.29;53.96;100595.88;3221927;87;21014;-77
2023/01/01 13:10:44;;;;;;;7.40;3.80;;;;;;;17.24;54.26;100595.06;3230671;87;21570;-77
2023/01/01 13:15:43;;;;;;;5.22;3.47;;;;;;;17.11;54.45;100593.90;3177895;87;20995;-77
2023/01/01 13:20:44;;;;;;;10.78;4.85;;;;;;;16.99;54.18;100599.73;3181132;87;21047;-76
2023/01/01 13:25:35;;;;;;;6.60;3.25;;;;;;;16.90;54.52;100609.90;3174319;87;22021;-77
2023/01/01 13:30:41;;;;;;;5.33;3.10;;;;;;;16.78;54.59;100597.77;3143140;88;21163;-77
2023/01/01 13:35:32;;;;;;;5.08;3.05;;;;;;;16.73;54.67;100600.42;3259598;83;21020;-77
2023/01/01 13:40:32;;;;;;;6.85;3.75;;;;;;;16.68;54.60;100607.47;3319943;83;20968;-77
2023/01/01 13:45:34;;;;;;;7.00;3.33;;;;;;;16.65;54.47;100597.44;3330446;83;20932;-77
2023/01/01 13:50:58;;;;;;;6.45;3.37;;;;;;;16.57;54.54;100588.34;3333540;83;21961;-77
2023/01/01 13:56:19;;;;;;;7.90;3.98;;;;;;;16.44;54.74;100601.16;3345633;83;21534;-77
2023/01/01 14:01:49;;;;;;;8.40;3.87;;;;;;;16.28;54.97;100606.53;3317140;83;20996;-77
2023/01/01 14:06:45;;;;;;;6.53;3.30;;;;;;;16.12;55.24;100629.83;3362476;83;20976;-77
2023/01/01 14:11:36;;;;;;;12.43;5.97;;;;;;;15.94;55.41;100640.01;3353377;83;20897;-77
2023/01/01 14:16:28;;;;;;;7.97;3.55;;;;;;;15.75;55.72;100644.48;3332168;83;21081;-77
2023/01/01 14:21:24;;;;;;;8.18;3.95;;;;;;;15.56;55.99;100653.72;3326552;83;20929;-77
2023/01/01 14:26:19;;;;;;;9.10;4.62;;;;;;;15.41;56.21;100657.70;3341547;83;21052;-76
2023/01/01 14:31:18;;;;;;;6.42;3.47;;;;;;;15.19;56.58;100673.94;3339668;83;21023;-78
2023/01/01 14:36:25;;;;;;;7.72;4.35;;;;;;;15.00;56.53;100700.59;3353608;83;21512;-78
2023/01/01 14:41:36;;;;;;;6.30;3.55;;;;;;;14.96;56.98;100700.16;3311906;83;22032;-77
2023/01/01 14:46:28;;;;;;;11.30;4.80;;;;;;;14.94;57.11;100703.23;3339847;83;20978;-78
2023/01/01 14:51:23;;;;;;;9.35;4.25;;;;;;;14.90;57.46;100718.48;3268409;83;20951;-77
2023/01/01 14:56:34;;;;;;;5.75;4.10;;;;;;;14.87;57.60;100718.92;3323064;83;21466;-78
2023/01/01 15:01:26;;;;;;;9.95;4.80;;;;;;;14.87;57.62;100721.98;3354084;83;21026;-78
2023/01/01 15:06:17;;;;;;;8.08;4.90;;;;;;;14.89;57.99;100735.94;3332565;83;21332;-78
2023/01/01 15:11:08;;;;;;;8.18;4.62;;;;;;;14.85;58.06;100752.08;3333282;83;21084;-77
2023/01/01 15:16:18;;;;;;;8.33;3.95;;;;;;;14.86;58.14;100743.38;3370580;83;20975;-77
2023/01/01 15:21:14;;;;;;;6.83;4.17;;;;;;;14.87;58.21;100740.31;3295697;83;21023;-77
2023/01/01 15:26:13;;;;;;;5.90;4.20;;;;;;;14.86;58.40;100705.83;3324963;83;20923;-77
2023/01/01 15:31:05;;;;;;;7.17;4.45;;;;;;;14.81;58.48;100686.22;3354471;83;21676;-78
2023/01/01 15:36:01;;;;;;;4.80;4.30;;;;;;;14.66;58.67;100707.16;3352779;83;20967;-77
2023/01/01 15:40:50;;;;;;;7.08;4.67;;;;;;;14.47;58.94;100701.89;3355390;83;21554;-77
2023/01/01 15:45:53;;;;;;;9.30;4.60;;;;;;;14.32;59.17;100708.40;3286118;83;20960;-78
2023/01/01 15:50:59;;;;;;;9.80;5.83;;;;;;;14.18;59.63;100719.27;3362079;83;21006;-78
2023/01/01 15:55:58;;;;;;;7.12;4.78;;;;;;;14.02;59.85;100729.70;3391633;83;21912;-78
2023/01/01 16:01:00;;;;;;;8.35;6.08;;;;;;;14.00;60.06;100743.18;3369402;83;21573;-78
2023/01/01 16:05:59;;;;;;;6.35;5.33;;;;;;;13.98;60.27;100763.66;3326835;83;20943;-77
2023/01/01 16:10:48;;;;;;;7.25;4.40;;;;;;;13.90;60.50;100758.41;3345599;83;21038;-77
2023/01/01 16:15:58;;;;;;;6.78;4.80;;;;;;;13.82;60.61;100775.79;3355984;83;21302;-76
2023/01/01 16:20:49;;;;;;;6.95;5.12;;;;;;;13.76;60.83;100781.00;3350454;83;21153;-77
2023/01/01 16:25:40;;;;;;;7.62;5.30;;;;;;;13.63;60.98;100794.00;3345848;82;20992;-76
2023/01/01 16:30:32;;;;;;;8.68;6.42;;;;;;;13.51;61.42;100784.78;3345059;83;21679;-76
2023/01/01 16:35:24;;;;;;;7.95;5.80;;;;;;;13.33;61.62;100792.93;3350091;83;21035;-76
2023/01/01 16:40:17;;;;;;;10.32;5.92;;;;;;;13.29;61.99;100798.97;3335195;83;21066;-76
2023/01/01 16:45:17;;;;;;;8.38;6.80;;;;;;;13.30;62.06;100805.06;3323688;83;21245;-76
2023/01/01 16:50:10;;;;;;;8.15;6.05;;;;;;;13.27;62.23;100813.76;3344458;83;20967;-76
2023/01/01 16:55:01;;;;;;;9.00;6.15;;;;;;;13.17;62.38;100834.13;3337719;83;20925;-76
2023/01/01 16:59:52;;;;;;;9.23;5.97;;;;;;;13.11;62.64;100851.02;3340816;83;20959;-76
2023/01/01 17:04:43;;;;;;;8.63;6.00;;;;;;;13.05;62.82;100856.20;3317278;83;21500;-76
2023/01/01 17:09:34;;;;;;;8.38;6.70;;;;;;;13.02;63.00;100848.33;3309982;83;21077;-77
2023/01/01 17:14:25;;;;;;;10.08;5.72;;;;;;;12.97;63.21;100849.61;3304289;83;21553;-76
2023/01/01 17:19:16;;;;;;;10.68;5.20;;;;;;;12.89;63.33;100855.17;3311299;83;21010;-76
2023/01/01 17:24:08;;;;;;;14.25;7.85;;;;;;;12.88;63.58;100854.31;3328859;83;21070;-76
2023/01/01 17:29:00;;;;;;;10.60;5.97;;;;;;;12.93;63.69;100847.81;3335378;83;20975;-76
2023/01/01 17:33:51;;;;;;;7.12;5.35;;;;;;;12.92;63.80;100842.17;3312750;84;21329;-77
2023/01/01 17:38:43;;;;;;;8.15;6.50;;;;;;;12.85;63.85;100839.92;3355702;83;21521;-76
2023/01/01 17:43:39;;;;;;;7.50;5.87;;;;;;;12.83;63.96;100834.26;3303905;83;21512;-76
2023/01/01 17:48:30;;;;;;;7.92;5.97;;;;;;;12.86;64.09;100829.95;3361080;83;20948;-77
2023/01/01 17:53:21;;;;;;;9.93;6.35;;;;;;;12.84;64.13;100846.42;3328330;83;20980;-76
2023/01/01 17:58:12;;;;;;;10.43;7.22;;;;;;;12.77;64.28;100850.73;3297316;83;21074;-76
2023/01/01 18:03:03;;;;;;;9.85;6.15;;;;;;;12.74;64.42;100865.05;3356003;83;20975;-76
2023/01/01 18:07:54;;;;;;;9.10;6.33;;;;;;;12.73;64.42;100873.71;3328488;83;21054;-76
2023/01/01 18:12:45;;;;;;;9.90;6.05;;;;;;;12.67;64.58;100877.58;3297811;83;21011;-76
2023/01/01 18:17:36;;;;;;;10.05;6.47;;;;;;;12.57;64.71;100876.58;3256045;83;20957;-76
2023/01/01 18:22:27;;;;;;;9.65;5.40;;;;;;;12.50;64.85;100876.96;3282917;83;21066;-77
2023/01/01 18:27:18;;;;;;;9.43;5.85;;;;;;;12.43;64.95;100881.66;3290763;83;20995;-77
2023/01/01 18:32:09;;;;;;;7.97;6.17;;;;;;;12.41;65.15;100901.59;3307844;83;21778;-76
2023/01/01 18:37:00;;;;;;;8.30;6.00;;;;;;;12.41;65.20;100895.08;3347278;83;20974;-76
2023/01/01 18:42:09;;;;;;;11.07;6.17;;;;;;;12.46;65.22;100902.53;3299404;83;20935;-76
2023/01/01 18:47:08;;;;;;;11.33;6.47;;;;;;;12.48;65.27;100913.85;3310399;83;22362;-76
2023/01/01 18:52:16;;;;;;;8.75;6.53;;;;;;;12.50;65.35;100920.39;3345205;83;20978;-76
2023/01/01 18:57:19;;;;;;;8.68;6.17;;;;;;;12.53;65.35;100919.14;3305045;84;20955;-76
2023/01/01 19:02:39;;;;;;;7.67;5.90;;;;;;;12.48;65.34;100916.46;3323095;83;21013;-77
2023/01/01 19:07:30;;;;;;;9.98;7.05;;;;;;;12.47;65.44;100927.77;3296955;84;21073;-76
2023/01/01 19:12:23;;;;;;;13.10;8.28;;;;;;;12.39;65.57;100929.39;3321252;84;22768;-76
2023/01/01 19:17:22;;;;;;;11.28;7.72;;;;;;;12.29;65.70;100940.58;3311475;83;21056;-76
2023/01/01 19:22:30;;;;;;;10.75;7.37;;;;;;;12.25;65.79;100955.70;3271389;83;22077;-76
2023/01/01 19:27:24;;;;;;;10.20;7.80;;;;;;;12.20;65.89;100961.73;3326286;83;20976;-76
2023/01/01 19:32:15;;;;;;;10.03;6.28;;;;;;;12.16;65.98;100979.50;3268721;84;20987;-76
2023/01/01 19:37:08;;;;;;;12.37;7.67;;;;;;;12.13;66.10;100983.36;3318631;83;21263;-76
2023/01/01 19:42:03;;;;;;;10.28;7.47;;;;;;;12.08;66.11;100993.27;3311721;83;20963;-76
2023/01/01 19:46:52;;;;;;;12.40;8.28;;;;;;;12.01;66.29;100997.50;3357345;83;20970;-77
2023/01/01 19:51:43;;;;;;;12.05;8.15;;;;;;;11.97;66.43;101008.74;3357328;83;22254;-76
2023/01/01 19:56:34;;;;;;;10.48;7.97;;;;;;;11.95;66.53;101003.94;3335240;83;21042;-77
2023/01/01 20:01:25;;;;;;;9.90;7.35;;;;;;;11.94;66.62;101021.71;3310586;83;20970;-77
2023/01/01 20:06:16;;;;;;;11.97;8.00;;;;;;;11.92;66.70;101023.42;3330365;83;20963;-77
2023/01/01 20:11:08;;;;;;;9.93;6.67;;;;;;;11.87;66.76;101025.03;3347529;83;21023;-77
2023/01/01 20:16:00;;;;;;;11.75;7.55;;;;;;;11.82;66.88;101018.03;3375586;83;21420;-77
2023/01/01 20:26:02;;;;;;;12.03;7.17;;;;;;;11.70;67.14;101020.42;3338313;83;21044;-77
2023/01/01 20:30:54;;;;;;;9.93;7.53;;;;;;;11.58;67.28;101021.51;3381118;81;20954;-77
2023/01/01 20:40:54;;;;;;;9.20;6.85;;;;;;;11.36;67.72;101034.14;3316896;83;21001;-77
2023/01/01 20:45:45;;;;;;;11.53;7.20;;;;;;;11.26;67.89;101029.59;3312605;83;21030;-77
2023/01/01 20:50:36;;;;;;;10.45;7.15;;;;;;;11.14;68.01;101035.86;3275863;83;21700;-77
2023/01/01 20:55:28;;;;;;;10.58;7.00;;;;;;;11.04;68.28;101036.98;3271816;84;21544;-77
2023/01/01 21:00:19;;;;;;;9.15;6.62;;;;;;;10.94;68.43;101030.27;3337215;83;21046;-77
2023/01/01 21:05:11;;;;;;;13.10;7.50;;;;;;;10.83;68.53;101036.11;3351427;83;21582;-77
2023/01/01 21:10:03;;;;;;;8.80;6.85;;;;;;;10.73;68.80;101038.48;3260328;84;21002;-77
2023/01/01 21:14:55;;;;;;;12.35;8.30;;;;;;;10.63;68.86;101042.19;3316112;83;22713;-78
2023/01/01 21:19:49;;;;;;;17.00;8.08;;;;;;;10.55;68.99;101050.27;3334579;84;22489;-77
2023/01/01 21:24:40;;;;;;;12.58;7.55;;;;;;;10.45;69.23;101059.56;3312394;83;20983;-78
2023/01/01 21:29:32;;;;;;;8.98;6.62;;;;;;;10.40;69.43;101059.00;3314496;83;21026;-77
2023/01/01 21:34:34;;;;;;;9.28;6.70;;;;;;;10.32;69.57;101061.83;3327276;83;21145;-77
2023/01/01 21:39:29;;;;;;;11.25;7.33;;;;;;;10.23;69.81;101058.16;3325018;83;23229;-78
2023/01/01 21:44:22;;;;;;;10.17;7.50;;;;;;;10.17;70.06;101060.59;3335896;83;20956;-78
2023/01/01 21:49:35;;;;;;;10.60;7.83;;;;;;;10.13;70.28;101060.07;3393816;83;20932;-79
2023/01/01 21:54:33;;;;;;;13.43;7.78;;;;;;;10.07;70.39;101067.30;3148027;89;21557;-77
2023/01/01 21:59:35;;;;;;;10.63;7.75;;;;;;;9.98;70.46;101081.77;3174052;89;21364;-77
2023/01/01 22:04:31;;;;;;;9.63;7.30;;;;;;;9.84;70.59;101078.41;3166079;89;21092;-77
2023/01/01 22:09:37;;;;;;;10.28;7.70;;;;;;;9.74;70.71;101084.20;3182025;88;28407;-78
2023/01/01 22:14:33;;;;;;;9.73;8.13;;;;;;;9.65;71.01;101076.17;3124924;89;21015;-78
2023/01/01 22:19:31;;;;;;;11.00;8.10;;;;;;;9.58;70.97;101088.53;3130705;89;20980;-78
2023/01/01 22:24:35;;;;;;;10.53;7.28;;;;;;;9.49;71.17;101087.42;3171105;89;21522;-78
2023/01/01 22:29:26;;;;;;;12.90;8.00;;;;;;;9.42;71.27;101079.44;3249261;83;21470;-79
2023/01/01 22:34:21;;;;;;;11.15;7.45;;;;;;;9.35;71.47;101079.28;3314687;83;21002;-78
2023/01/01 22:39:21;;;;;;;11.75;7.75;;;;;;;9.35;71.76;101084.87;3342255;83;20977;-78
2023/01/01 22:44:13;;;;;;;13.62;8.80;;;;;;;9.32;71.87;101082.21;3348033;83;21037;-78
2023/01/01 22:49:29;;;;;;;13.35;9.40;;;;;;;9.35;72.23;101080.98;3325042;83;49180;-78
2023/01/01 22:54:19;;;;;;;13.58;8.10;;;;;;;9.36;72.19;101076.27;3375173;83;21232;-78
2023/01/01 22:59:12;;;;;;;10.82;8.25;;;;;;;9.37;72.31;101071.52;3402199;83;20968;-78
2023/01/01 23:04:15;;;;;;;11.70;7.80;;;;;;;9.37;72.48;101079.30;3383404;83;21522;-78
2023/01/01 23:09:12;;;;;;;15.65;9.30;;;;;;;9.38;72.52;101078.48;3343584;83;21016;-78
2023/01/01 23:19:18;;;;;;;13.72;8.70;;;;;;;9.34;72.64;101081.41;3306224;82;21217;-78
2023/01/01 23:24:16;;;;;;;13.48;8.83;;;;;;;9.27;72.79;101079.48;3318949;83;20985;-78
2023/01/01 23:29:21;;;;;;;12.68;8.60;;;;;;;9.20;72.77;101084.45;3335044;83;21045;-78
2023/01/01 23:34:30;;;;;;;12.28;8.15;;;;;;;9.07;72.90;101082.80;3333693;83;20971;-78
2023/01/01 23:39:26;;;;;;;11.33;7.92;;;;;;;8.94;72.80;101091.05;3297526;83;20963;-78